BFIBOEING FLD/KING COUNTY INTL
METARs for airports near BFI, sorted by distance:
N 0 nm 21' KBFI 261453Z 15012KT 10SM BKN035 13/10 A2987
SE 4 nm 32' KRNT 261532Z 15005KT 10SM OVC029 14/09 A2988
S 4 nm 432' KSEA 261453Z 16007KT 10SM BKN027 OVC050 13/09 A2988
W 18 nm 444' KPWT 261524Z 20010KT 10SM BKN028 BKN036 12/11 A2987
SW 19 nm 294' KTIW 261453Z 19008KT 10SM OVC028 12/10 A2988
N 22 nm 607' KPAE 261453Z 15011KT 10SM BKN120 13/09 A2986
S 24 nm 322' KTCM 261503Z 22011KT 10SM BKN028 BKN080 OVC130 14/10 A2988
S 25 nm 537' KPLU 261535Z 00000KT 10SM OVC018 14/11 A2990
S 29 nm 301' KGRF 261458Z 17011KT 10SM BKN021 OVC027 14/10 A2988
N 38 nm 141' KAWO 261456Z 13012KT 10SM FEW030 BKN110 14/09 A2986
SW 38 nm 272' KSHN 261453Z 14004KT 10SM OVC029 13/11 A2985
SW 41 nm 207' KOLM 261454Z 20007KT 10SM BKN028 13/11 A2989
N 51 nm 47' KNUW 261456Z 14011G19KT 10SM FEW011 BKN026 BKN040 15/10 A2985
N 56 nm 145' KBVS 261535Z 15007KT 9SM OVC028 15/10 A2983
NW 57 nm 13' KNOW 261535Z 00000KT 7SM -DZ SCT034 BKN090 OVC110 12/11 A2982
SW 58 nm 177' KCLS 261535Z 16011G16KT 10SM BKN014 OVC065 14/12 A2989
NW 59 nm 291' KCLM 261453Z 15004KT 10SM -RA FEW060 BKN080 OVC100 13/09 A2981
NW 66 nm 112' KFHR 261523Z 00000KT 10SM BKN021 OVC060 13/10 A2984
SW 74 nm 17' KHQM 261453Z 16007KT 10SM OVC022 16/11 A2986
N 74 nm 34' KORS 261535Z 18003KT 1SM RA BR SCT003 BKN026 OVC042 13/12 A2983
N 76 nm 171' KBLI 261453Z 17012G20KT 10SM SCT025 OVC100 15/10 A2982
E 78 nm 1763' KELN 261453Z 31013KT 10SM CLR 17/08 A2980
NW 80 nm 64' CYYJ 261535Z 16002KT 5SM RA BR BKN042 OVC055 12/12 A2982
E 85 nm 1248' KEAT 261455Z 29009KT 10SM CLR 18/08 A2975
S 88 nm 20' KKLS 261537Z 18008KT 10SM FEW018 OVC033 14/12 A2993
SE 92 nm 1098' KYKM 261453Z 28006KT 10SM CLR 12/11 A2980
W 94 nm 193' KUIL 261546Z 15008KT 1 1/2SM -RA BR BKN007 OVC013 13/13 A2980
TAFs for airports near BFI, sorted by distance:
N 0 nm 21' KBFI TAF
  AMD KBFI 261450Z 2615/2712 16009KT P6SM BKN030 BKN050
  FM261600 20011KT P6SM BKN035 BKN120
  FM262300 18010G15KT P6SM -RA BKN030 OVC060
S 4 nm 432' KSEA KSEA 261451Z 2615/2718 16009KT P6SM OVC030
  FM261600 22012KT P6SM BKN030 BKN120
  FM262000 24012KT P6SM VCSH BKN025 OVC060
  FM270000 20015G22KT 4SM -RA BR OVC025
  FM270300 18010G18KT 4SM -RA BR OVC015
W 18 nm 444' KPWT TAF KPWT 261124Z 2612/2712 20011KT P6SM SCT035 BKN100
  FM261400 19012KT P6SM OVC015
  FM261600 20012G18KT P6SM VCSH OVC015
  FM261900 19013G20KT P6SM -RA BKN020 OVC050
N 22 nm 607' KPAE KPAE 261124Z 2612/2712 17011KT P6SM SCT035 OVC050
  FM261400 17012G18KT P6SM BKN018 BKN100
  FM262000 18010G15KT P6SM -RA BKN020 OVC050
S 24 nm 322' KTCM TAF TAF KTCM 261300Z 2613/2719 26012KT 9999 BKN020 QNH2989INS
  BECMG 2616/2617 26012G18KT 9999 BKN020 QNH2982INS
  TEMPO 2617/2620 BKN040
  BECMG 2620/2621 19010KT 9000 -SHRA BKN010 OVC020 QNH2972INS
  TEMPO 2700/2704 18010G20KT
  BECMG 2713/2714 18009KT 9000 -SHRA BKN030 OVC040 QNH2975INS TX19/2622Z TN10/2613Z
S 29 nm 301' KGRF TAF KGRF 261300Z 2613/2719 20005KT 9999 OVC025 QNH2973INS
  BECMG 2622/2623 20010G15KT 8000 SHRA OVC040 510406 QNH2969INS
  BECMG 2705/2706 20008KT 9999 -SHRA OVC015 QNH2970INS
  BECMG 2716/2717 20009KT 9999 -SHRA OVC030 QNH2980INS TX18/2700Z TN12/2613Z
SW 41 nm 207' KOLM KOLM 261124Z 2612/2712 22004KT P6SM BKN200
  FM261500 19007KT 6SM BR BKN015 BKN100
  FM261900 20010KT P6SM -RA BKN020 OVC050
N 51 nm 47' KNUW TAF KNUW 2523/2623 26009KT 9999 SCT015 BKN150 BKN250 QNH2980INS
  FM261200 14009KT 9999 BKN020 BKN150 OVC250 QNH2979INS
  FM261500 14018G25KT 9999 VCSH BKN020 BKN100 OVC250 QNH2974INS
  TEMPO 2615/2621 9000 -SHRA
  FM262100 14010KT 9000 -SHRA BKN015 OVC080 QNH2968INS T10/2612Z T16/2622Z FS30173
NW 59 nm 291' KCLM KCLM 261124Z 2612/2712 21003KT P6SM VCSH BKN025
  FM261500 VRB05KT 6SM -RA BR BKN015 OVC050
  FM262200 VRB03KT 4SM -RA BR OVC020
SW 74 nm 17' KHQM KHQM 261124Z 2612/2712 21005KT P6SM SCT025 OVC035
  FM261300 14006KT 4SM BR OVC015
  FM261500 12013G18KT 4SM -RA BR OVC004
  FM262000 14015G22KT 2SM -RA OVC007
N 76 nm 171' KBLI KBLI 261124Z 2612/2712 17013G20KT P6SM SCT040
  FM261600 16014G22KT P6SM -RA BKN030 BKN100
  FM262200 15012KT 4SM -RA BR OVC030
E 85 nm 1248' KEAT TAF KEAT 261138Z 2612/2712 32008KT P6SM BKN200
  FM261900 26005KT P6SM SCT150 BKN200
  FM270300 30009KT P6SM SCT080 BKN100 OVC120
  FM271000 VRB05KT P6SM SCT060 OVC100
SE 92 nm 1098' KYKM TAF KYKM 261120Z 2612/2712 26004KT P6SM FEW250
  FM261900 20009G18KT P6SM SCT250
  FM270200 21006KT P6SM OVC100
  FM271000 19005KT P6SM OVC050
  FM271100 22005KT P6SM -RA OVC100

Shortcut to this page: http://wxbay.com.

Data may contain errors.